Time;durP1;ratioP1;P1;durP2;ratioP2;P2;SDS_P1;SDS_P2;PMS_P1;PMS_P2;Temp;Humidity;BMP_temperature;BMP_pressure;BME280_temperature;BME280_humidity;BME280_pressure;Samples;Min_cycle;Max_cycle;Signal;HPM_P1;HPM_P2
2024/01/27 00:01:34;;;;;;;15.65;2.72;;;;;;;;;;7415473;19;19993;-78
2024/01/27 00:04:00;;;;;;;9.43;2.25;;;;;;;;;;7384333;19;20042;-77
2024/01/27 00:06:25;;;;;;;11.18;2.92;;;;;;;;;;7384096;19;19999;-78
2024/01/27 00:08:50;;;;;;;9.30;3.08;;;;;;;;;;7380181;19;19999;-78
2024/01/27 00:11:16;;;;;;;9.55;2.38;;;;;;;;;;7382878;19;20006;-78
2024/01/27 00:13:41;;;;;;;10.70;2.80;;;;;;;;;;7404185;19;20010;-78
2024/01/27 00:16:07;;;;;;;12.35;2.63;;;;;;;;;;7387890;19;20373;-78
2024/01/27 00:18:32;;;;;;;9.50;2.35;;;;;;;;;;7374865;19;20035;-76
2024/01/27 00:20:57;;;;;;;9.30;2.50;;;;;;;;;;7377262;19;20010;-78
2024/01/27 00:23:23;;;;;;;9.80;2.35;;;;;;;;;;7374854;19;20026;-77
2024/01/27 00:25:48;;;;;;;11.45;2.35;;;;;;;;;;7376573;19;19998;-77
2024/01/27 00:28:14;;;;;;;9.88;2.30;;;;;;;;;;7403717;19;20020;-79
2024/01/27 00:30:39;;;;;;;9.40;2.30;;;;;;;;;;7390185;19;20049;-79
2024/01/27 00:33:04;;;;;;;11.15;2.60;;;;;;;;;;7380880;19;20013;-78
2024/01/27 00:35:30;;;;;;;14.27;2.22;;;;;;;;;;7381990;19;20027;-76
2024/01/27 00:37:55;;;;;;;13.00;2.80;;;;;;;;;;7382043;19;20034;-77
2024/01/27 00:40:20;;;;;;;11.40;2.65;;;;;;;;;;7403021;19;20006;-77
2024/01/27 00:42:46;;;;;;;12.35;2.50;;;;;;;;;;7380182;19;20010;-77
2024/01/27 00:45:11;;;;;;;11.50;2.30;;;;;;;;;;7381628;19;20007;-77
2024/01/27 00:47:36;;;;;;;15.80;2.78;;;;;;;;;;7382401;19;20010;-77
2024/01/27 00:50:02;;;;;;;11.65;2.72;;;;;;;;;;7378292;19;20023;-77
2024/01/27 00:52:29;;;;;;;10.32;2.70;;;;;;;;;;7398726;19;20504;-78
2024/01/27 00:54:55;;;;;;;19.85;3.40;;;;;;;;;;7374242;19;19999;-79
2024/01/27 00:57:20;;;;;;;9.00;2.58;;;;;;;;;;7381631;19;20006;-78
2024/01/27 00:59:46;;;;;;;10.57;3.13;;;;;;;;;;7381485;19;20009;-79
2024/01/27 01:02:11;;;;;;;9.25;2.40;;;;;;;;;;7385058;19;20358;-77
2024/01/27 01:04:37;;;;;;;12.05;2.67;;;;;;;;;;7395892;19;20006;-77
2024/01/27 01:07:02;;;;;;;10.32;2.85;;;;;;;;;;7381050;19;20007;-78
2024/01/27 01:09:28;;;;;;;15.00;2.78;;;;;;;;;;7393371;19;20007;-78
2024/01/27 01:11:53;;;;;;;7.50;2.65;;;;;;;;;;7392229;19;20405;-77
2024/01/27 01:14:19;;;;;;;16.77;2.67;;;;;;;;;;7391798;19;20301;-78
2024/01/27 01:16:44;;;;;;;12.35;2.78;;;;;;;;;;7399072;19;20062;-77
2024/01/27 01:19:09;;;;;;;10.20;3.17;;;;;;;;;;7423373;19;20007;-78
2024/01/27 01:21:35;;;;;;;10.82;2.72;;;;;;;;;;7392299;19;20014;-78
2024/01/27 01:24:00;;;;;;;11.68;2.95;;;;;;;;;;7385906;19;20069;-78
2024/01/27 01:26:26;;;;;;;10.48;2.95;;;;;;;;;;7382248;19;20009;-78
2024/01/27 01:28:51;;;;;;;10.35;2.65;;;;;;;;;;7385703;19;20001;-78
2024/01/27 01:31:16;;;;;;;8.80;2.65;;;;;;;;;;7411514;19;20002;-78
2024/01/27 01:33:43;;;;;;;11.52;2.78;;;;;;;;;;7385371;19;20019;-78
2024/01/27 01:36:08;;;;;;;9.35;2.38;;;;;;;;;;7390401;19;20005;-78
2024/01/27 01:38:33;;;;;;;13.32;2.83;;;;;;;;;;7389130;19;20007;-77
2024/01/27 01:40:59;;;;;;;12.93;2.50;;;;;;;;;;7397094;19;20017;-78
2024/01/27 01:43:24;;;;;;;11.82;2.50;;;;;;;;;;7433375;19;20113;-78
2024/01/27 01:45:50;;;;;;;7.03;2.40;;;;;;;;;;7396992;19;20363;-78
2024/01/27 01:48:16;;;;;;;8.35;2.38;;;;;;;;;;7384228;19;20078;-79
2024/01/27 01:50:41;;;;;;;8.25;2.40;;;;;;;;;;7383682;19;20462;-78
2024/01/27 01:53:07;;;;;;;11.77;3.17;;;;;;;;;;7385324;19;20010;-78
2024/01/27 01:55:33;;;;;;;11.07;2.35;;;;;;;;;;7406826;19;19998;-78
2024/01/27 01:57:58;;;;;;;8.27;2.45;;;;;;;;;;7384777;19;20058;-79
2024/01/27 02:00:24;;;;;;;10.82;2.65;;;;;;;;;;7382746;19;20039;-78
2024/01/27 02:02:49;;;;;;;10.88;2.30;;;;;;;;;;7383873;19;20027;-78
2024/01/27 02:05:15;;;;;;;11.00;2.97;;;;;;;;;;7383943;19;20006;-78
2024/01/27 02:07:40;;;;;;;10.57;2.83;;;;;;;;;;7403319;19;19995;-78
2024/01/27 02:10:13;;;;;;;13.10;2.78;;;;;;;;;;7377950;19;20006;-78
2024/01/27 02:12:39;;;;;;;9.65;3.25;;;;;;;;;;7387122;19;20006;-78
2024/01/27 02:15:04;;;;;;;12.52;2.90;;;;;;;;;;7383170;19;20006;-78
2024/01/27 02:17:30;;;;;;;12.90;3.10;;;;;;;;;;7383507;19;20002;-78
2024/01/27 02:19:55;;;;;;;14.55;2.83;;;;;;;;;;7384219;19;20007;-78
2024/01/27 02:22:21;;;;;;;14.23;3.22;;;;;;;;;;7411392;19;19999;-79
2024/01/27 02:24:47;;;;;;;16.02;3.38;;;;;;;;;;7387047;19;20011;-77
2024/01/27 02:27:12;;;;;;;12.05;2.58;;;;;;;;;;7378391;19;20019;-77
2024/01/27 02:29:37;;;;;;;11.95;2.55;;;;;;;;;;7379452;19;20069;-77
2024/01/27 02:32:04;;;;;;;9.73;2.75;;;;;;;;;;7383580;19;20032;-78
2024/01/27 02:34:29;;;;;;;13.50;2.92;;;;;;;;;;7410427;19;20015;-78
2024/01/27 02:36:55;;;;;;;6.57;2.45;;;;;;;;;;7381837;19;20429;-78
2024/01/27 02:39:21;;;;;;;14.45;2.83;;;;;;;;;;7382624;19;20074;-78
2024/01/27 02:41:46;;;;;;;14.18;2.67;;;;;;;;;;7382311;19;20070;-78
2024/01/27 02:44:13;;;;;;;12.95;2.65;;;;;;;;;;7392881;19;20010;-78
2024/01/27 02:46:38;;;;;;;13.93;2.72;;;;;;;;;;7424141;19;19994;-78
2024/01/27 02:49:04;;;;;;;8.05;2.38;;;;;;;;;;7395601;19;20066;-78
2024/01/27 02:51:29;;;;;;;9.20;2.63;;;;;;;;;;7396777;19;20027;-78
2024/01/27 02:53:55;;;;;;;17.77;2.88;;;;;;;;;;7399830;19;20045;-78
2024/01/27 02:56:20;;;;;;;10.88;2.38;;;;;;;;;;7388045;19;20007;-79
2024/01/27 02:58:46;;;;;;;10.77;2.78;;;;;;;;;;7378928;19;20024;-78
2024/01/27 03:01:11;;;;;;;14.38;4.70;;;;;;;;;;7401597;19;20002;-77
2024/01/27 03:03:37;;;;;;;13.55;2.85;;;;;;;;;;7375466;19;20011;-79
2024/01/27 03:06:02;;;;;;;6.43;2.55;;;;;;;;;;7378807;19;20006;-77
2024/01/27 03:08:27;;;;;;;11.27;2.42;;;;;;;;;;7384571;19;20011;-77
2024/01/27 03:10:53;;;;;;;13.35;3.00;;;;;;;;;;7381050;19;20338;-76
2024/01/27 03:13:19;;;;;;;17.00;3.40;;;;;;;;;;7400691;19;20058;-77
2024/01/27 03:15:44;;;;;;;14.93;2.75;;;;;;;;;;7374919;19;20050;-77
2024/01/27 03:18:09;;;;;;;10.35;2.70;;;;;;;;;;7375175;19;20010;-77
2024/01/27 03:20:35;;;;;;;7.95;2.38;;;;;;;;;;7377848;19;20478;-78
2024/01/27 03:23:00;;;;;;;10.15;2.38;;;;;;;;;;7379341;19;20002;-77
2024/01/27 03:25:26;;;;;;;12.43;2.95;;;;;;;;;;7404424;19;20006;-78
2024/01/27 03:27:52;;;;;;;6.65;2.55;;;;;;;;;;7392519;19;20017;-78
2024/01/27 03:30:17;;;;;;;13.13;2.72;;;;;;;;;;7391980;19;20433;-77
2024/01/27 03:32:43;;;;;;;13.60;2.67;;;;;;;;;;7380872;19;20010;-77
2024/01/27 03:35:09;;;;;;;10.93;2.60;;;;;;;;;;7383312;19;20015;-78
2024/01/27 03:37:34;;;;;;;12.48;2.97;;;;;;;;;;7398889;19;20011;-78
2024/01/27 03:40:01;;;;;;;8.13;2.45;;;;;;;;;;7376912;19;20007;-77
2024/01/27 03:42:26;;;;;;;7.25;2.33;;;;;;;;;;7376125;19;20069;-78
2024/01/27 03:44:52;;;;;;;10.50;2.63;;;;;;;;;;7378396;19;20008;-78
2024/01/27 03:47:18;;;;;;;15.35;2.92;;;;;;;;;;7377928;19;20033;-77
2024/01/27 03:49:43;;;;;;;10.77;2.83;;;;;;;;;;7397243;19;19998;-77
2024/01/27 03:52:10;;;;;;;10.52;2.50;;;;;;;;;;7408826;19;20374;-78
2024/01/27 03:54:38;;;;;;;14.68;2.97;;;;;;;;;;7384820;19;20053;-77
2024/01/27 03:57:03;;;;;;;12.85;3.00;;;;;;;;;;7378876;19;20021;-77
2024/01/27 03:59:30;;;;;;;13.82;3.13;;;;;;;;;;7373777;19;20011;-77
2024/01/27 04:01:55;;;;;;;19.92;3.35;;;;;;;;;;7374433;19;20023;-78
2024/01/27 04:04:21;;;;;;;15.23;2.97;;;;;;;;;;7397909;19;20449;-77
2024/01/27 04:06:46;;;;;;;10.07;2.90;;;;;;;;;;7378487;19;20007;-77
2024/01/27 04:09:12;;;;;;;10.82;2.70;;;;;;;;;;7376461;19;19998;-77
2024/01/27 04:11:37;;;;;;;11.60;2.72;;;;;;;;;;7383009;19;20011;-77
2024/01/27 04:14:04;;;;;;;7.78;2.55;;;;;;;;;;7377963;19;20015;-77
2024/01/27 04:16:30;;;;;;;11.20;3.03;;;;;;;;;;7399291;19;20013;-77
2024/01/27 04:18:56;;;;;;;13.70;2.58;;;;;;;;;;7378595;19;20007;-78
2024/01/27 04:21:22;;;;;;;8.02;2.60;;;;;;;;;;7381493;19;20003;-78
2024/01/27 04:23:48;;;;;;;13.55;2.78;;;;;;;;;;7378898;19;20015;-77
2024/01/27 04:26:13;;;;;;;9.00;2.60;;;;;;;;;;7377336;19;20027;-77
2024/01/27 04:28:39;;;;;;;11.70;2.90;;;;;;;;;;7397809;19;20003;-78
2024/01/27 04:31:05;;;;;;;11.35;2.80;;;;;;;;;;7376598;19;20007;-77
2024/01/27 04:33:30;;;;;;;12.23;2.42;;;;;;;;;;7380711;19;19999;-77
2024/01/27 04:35:55;;;;;;;11.50;2.65;;;;;;;;;;7383252;19;20029;-77
2024/01/27 04:38:21;;;;;;;11.57;2.40;;;;;;;;;;7378067;19;20035;-77
2024/01/27 04:40:49;;;;;;;10.57;2.35;;;;;;;;;;7375603;19;20021;-77
2024/01/27 04:43:18;;;;;;;12.57;2.80;;;;;;;;;;7403126;19;20075;-77
2024/01/27 04:45:44;;;;;;;15.45;2.80;;;;;;;;;;7383318;19;20006;-77
2024/01/27 04:48:09;;;;;;;10.75;2.75;;;;;;;;;;7387938;19;20010;-79
2024/01/27 04:50:35;;;;;;;8.98;2.88;;;;;;;;;;7391169;19;19998;-78
2024/01/27 04:53:00;;;;;;;9.32;2.50;;;;;;;;;;7390792;19;19997;-78
2024/01/27 04:55:26;;;;;;;12.88;2.72;;;;;;;;;;7408988;19;20461;-77
2024/01/27 04:57:53;;;;;;;13.32;3.00;;;;;;;;;;7390706;19;20079;-77
2024/01/27 05:00:18;;;;;;;10.85;2.53;;;;;;;;;;7401417;19;20002;-78
2024/01/27 05:02:45;;;;;;;7.38;2.53;;;;;;;;;;7378934;19;20078;-78
2024/01/27 05:05:11;;;;;;;11.23;2.60;;;;;;;;;;7383418;19;20011;-78
2024/01/27 05:07:37;;;;;;;10.07;2.90;;;;;;;;;;7410118;19;20003;-78
2024/01/27 05:10:02;;;;;;;12.63;3.05;;;;;;;;;;7388043;19;20002;-79
2024/01/27 05:12:28;;;;;;;6.90;2.25;;;;;;;;;;7399475;19;20001;-78
2024/01/27 05:14:54;;;;;;;13.10;3.10;;;;;;;;;;7397263;19;20010;-78
2024/01/27 05:17:19;;;;;;;11.32;2.63;;;;;;;;;;7394724;19;19998;-78
2024/01/27 05:19:44;;;;;;;10.75;3.15;;;;;;;;;;7392625;19;20027;-78
2024/01/27 05:22:09;;;;;;;9.52;2.40;;;;;;;;;;7411212;19;20387;-78
2024/01/27 05:24:35;;;;;;;9.82;2.65;;;;;;;;;;7389317;19;20114;-78
2024/01/27 05:27:00;;;;;;;12.27;3.13;;;;;;;;;;7388326;19;20046;-78
2024/01/27 05:29:28;;;;;;;17.17;2.78;;;;;;;;;;7395434;19;19998;-78
2024/01/27 05:31:54;;;;;;;14.00;2.80;;;;;;;;;;7399937;19;20011;-78
2024/01/27 05:34:19;;;;;;;12.15;2.70;;;;;;;;;;7416772;19;20005;-78
2024/01/27 05:36:44;;;;;;;8.80;2.83;;;;;;;;;;7390839;19;19994;-78
2024/01/27 05:39:11;;;;;;;7.03;2.80;;;;;;;;;;7385201;19;20002;-79
2024/01/27 05:41:36;;;;;;;14.27;3.13;;;;;;;;;;7386100;19;20024;-78
2024/01/27 05:44:02;;;;;;;9.80;2.83;;;;;;;;;;7386304;19;20032;-78
2024/01/27 05:46:27;;;;;;;12.82;3.55;;;;;;;;;;7404817;19;20386;-78
2024/01/27 05:49:01;;;;;;;11.23;3.30;;;;;;;;;;7379462;19;20002;-77
2024/01/27 05:51:26;;;;;;;15.13;4.10;;;;;;;;;;7386263;19;20478;-77
2024/01/27 05:53:52;;;;;;;9.35;3.55;;;;;;;;;;7380790;19;20010;-78
2024/01/27 05:56:20;;;;;;;13.30;3.28;;;;;;;;;;7381500;19;20007;-77
2024/01/27 05:58:46;;;;;;;15.20;5.47;;;;;;;;;;7381159;19;20003;-77
2024/01/27 06:01:11;;;;;;;12.07;3.13;;;;;;;;;;7414311;19;20046;-78
2024/01/27 06:03:36;;;;;;;13.32;3.22;;;;;;;;;;7383337;19;20038;-77
2024/01/27 06:06:02;;;;;;;14.02;3.55;;;;;;;;;;7383719;19;20010;-78
2024/01/27 06:08:27;;;;;;;11.00;2.90;;;;;;;;;;7381423;19;20070;-77
2024/01/27 06:10:52;;;;;;;11.43;3.13;;;;;;;;;;7381734;19;20013;-77
2024/01/27 06:13:18;;;;;;;12.65;3.03;;;;;;;;;;7403890;19;20035;-77
2024/01/27 06:15:43;;;;;;;11.35;3.30;;;;;;;;;;7381175;19;19994;-77
2024/01/27 06:18:08;;;;;;;15.88;3.40;;;;;;;;;;7382249;19;20024;-78
2024/01/27 06:20:34;;;;;;;16.92;3.20;;;;;;;;;;7381455;19;20066;-77
2024/01/27 06:22:59;;;;;;;11.30;3.05;;;;;;;;;;7384610;19;20103;-78
2024/01/27 06:25:24;;;;;;;11.75;3.40;;;;;;;;;;7404955;19;20026;-78
2024/01/27 06:27:50;;;;;;;8.57;2.90;;;;;;;;;;7385274;19;19998;-78
2024/01/27 06:30:15;;;;;;;9.02;3.50;;;;;;;;;;7384939;19;20014;-79
2024/01/27 06:32:41;;;;;;;12.02;3.92;;;;;;;;;;7395959;19;20015;-78
2024/01/27 06:35:07;;;;;;;13.77;3.90;;;;;;;;;;7390910;19;20017;-78
2024/01/27 06:37:33;;;;;;;13.70;4.15;;;;;;;;;;7395023;19;20013;-78
2024/01/27 06:39:58;;;;;;;12.40;3.72;;;;;;;;;;7384288;19;20002;-78
2024/01/27 06:42:24;;;;;;;11.88;3.65;;;;;;;;;;7374704;19;20516;-78
2024/01/27 06:44:49;;;;;;;16.48;3.78;;;;;;;;;;7376397;19;20010;-78
2024/01/27 06:47:15;;;;;;;16.30;4.07;;;;;;;;;;7379422;19;20007;-77
2024/01/27 06:49:40;;;;;;;10.13;3.75;;;;;;;;;;7401609;19;20002;-77
2024/01/27 06:52:05;;;;;;;13.80;3.60;;;;;;;;;;7382725;19;20007;-78
2024/01/27 06:54:31;;;;;;;12.95;3.60;;;;;;;;;;7383293;19;20002;-77
2024/01/27 06:56:59;;;;;;;12.13;3.50;;;;;;;;;;7379854;19;20014;-78
2024/01/27 06:59:25;;;;;;;19.02;3.80;;;;;;;;;;7390169;19;20056;-78
2024/01/27 07:01:50;;;;;;;18.85;3.92;;;;;;;;;;7393695;19;20109;-78
2024/01/27 07:04:17;;;;;;;9.13;3.90;;;;;;;;;;7407291;19;20052;-77
2024/01/27 07:06:44;;;;;;;10.68;3.83;;;;;;;;;;7385797;19;20002;-78
2024/01/27 07:09:09;;;;;;;18.67;4.10;;;;;;;;;;7383779;19;20009;-76
2024/01/27 07:11:35;;;;;;;13.30;3.95;;;;;;;;;;7381939;19;20015;-78
2024/01/27 07:14:01;;;;;;;11.27;3.22;;;;;;;;;;7379973;19;19998;-78
2024/01/27 07:16:27;;;;;;;10.50;4.28;;;;;;;;;;7398874;19;20697;-76
2024/01/27 07:18:52;;;;;;;10.50;3.40;;;;;;;;;;7373144;19;20002;-76
2024/01/27 07:21:17;;;;;;;14.40;3.88;;;;;;;;;;7375334;19;20010;-78
2024/01/27 07:23:44;;;;;;;13.55;3.67;;;;;;;;;;7382844;19;20014;-78
2024/01/27 07:26:10;;;;;;;14.05;3.67;;;;;;;;;;7390557;19;20010;-78
2024/01/27 07:28:35;;;;;;;9.35;3.42;;;;;;;;;;7416776;19;20006;-79
2024/01/27 07:31:01;;;;;;;22.00;4.40;;;;;;;;;;7387561;19;20024;-79
2024/01/27 07:33:26;;;;;;;15.23;4.40;;;;;;;;;;7382909;19;20006;-78
2024/01/27 07:35:51;;;;;;;14.55;4.22;;;;;;;;;;7374760;19;20001;-78
2024/01/27 07:38:17;;;;;;;13.55;4.15;;;;;;;;;;7375420;19;20007;-78
2024/01/27 07:40:42;;;;;;;10.63;4.20;;;;;;;;;;7400200;19;20031;-78
2024/01/27 07:43:08;;;;;;;15.32;3.95;;;;;;;;;;7379950;19;20018;-78
2024/01/27 07:45:33;;;;;;;10.90;3.60;;;;;;;;;;7375759;19;20015;-78
2024/01/27 07:47:58;;;;;;;15.27;3.70;;;;;;;;;;7368435;19;20011;-77
2024/01/27 07:50:24;;;;;;;8.07;4.03;;;;;;;;;;7367621;19;20090;-77
2024/01/27 07:52:49;;;;;;;11.18;3.88;;;;;;;;;;7374942;19;20038;-77
2024/01/27 07:55:15;;;;;;;12.65;3.88;;;;;;;;;;7399648;19;20009;-77
2024/01/27 07:57:40;;;;;;;15.77;4.18;;;;;;;;;;7379540;19;20039;-77
2024/01/27 08:00:06;;;;;;;13.80;4.45;;;;;;;;;;7379606;19;20014;-77
2024/01/27 08:02:32;;;;;;;19.15;4.05;;;;;;;;;;7373886;19;20006;-75
2024/01/27 08:04:58;;;;;;;9.88;3.35;;;;;;;;;;7368658;19;20531;-76
2024/01/27 08:07:23;;;;;;;16.83;4.18;;;;;;;;;;7390530;19;20027;-76
2024/01/27 08:09:48;;;;;;;12.63;3.00;;;;;;;;;;7367215;19;20002;-77
2024/01/27 08:12:14;;;;;;;17.73;3.88;;;;;;;;;;7370271;19;20361;-78
2024/01/27 08:14:39;;;;;;;20.38;4.55;;;;;;;;;;7368150;19;20006;-76
2024/01/27 08:17:04;;;;;;;10.35;3.58;;;;;;;;;;7365895;19;20021;-77
2024/01/27 08:19:30;;;;;;;9.20;3.08;;;;;;;;;;7389296;19;20041;-77
2024/01/27 08:21:55;;;;;;;6.50;3.00;;;;;;;;;;7366814;19;20621;-77
2024/01/27 08:24:22;;;;;;;13.13;3.70;;;;;;;;;;7363178;19;20009;-76
2024/01/27 08:26:48;;;;;;;9.50;3.65;;;;;;;;;;7364420;19;20341;-77
2024/01/27 08:29:13;;;;;;;14.27;3.67;;;;;;;;;;7364898;19;20073;-75
2024/01/27 08:31:39;;;;;;;16.60;3.95;;;;;;;;;;7384707;19;20002;-76
2024/01/27 08:34:04;;;;;;;13.05;4.25;;;;;;;;;;7364642;19;19998;-76
2024/01/27 08:36:30;;;;;;;12.75;4.03;;;;;;;;;;7363962;19;20002;-77
2024/01/27 08:38:55;;;;;;;16.17;3.97;;;;;;;;;;7364811;19;19999;-77
2024/01/27 08:41:20;;;;;;;12.65;4.30;;;;;;;;;;7373049;19;20009;-77
2024/01/27 08:43:46;;;;;;;11.63;4.20;;;;;;;;;;7364802;19;19998;-76
2024/01/27 08:46:13;;;;;;;10.70;4.00;;;;;;;;;;7389006;19;20003;-76
2024/01/27 08:48:40;;;;;;;15.20;3.95;;;;;;;;;;7362743;19;20006;-77
2024/01/27 08:51:05;;;;;;;16.35;5.25;;;;;;;;;;7372171;19;20006;-77
2024/01/27 08:53:30;;;;;;;12.13;4.53;;;;;;;;;;7374488;19;20002;-77
2024/01/27 08:55:56;;;;;;;14.32;4.97;;;;;;;;;;7377933;19;19998;-76
2024/01/27 08:58:21;;;;;;;15.65;5.13;;;;;;;;;;7395000;19;19998;-78
2024/01/27 09:00:46;;;;;;;11.70;3.95;;;;;;;;;;7375981;19;20359;-77
2024/01/27 09:03:14;;;;;;;10.45;3.90;;;;;;;;;;7374196;19;20003;-76
2024/01/27 09:05:41;;;;;;;12.60;4.05;;;;;;;;;;7377225;19;20010;-77
2024/01/27 09:08:07;;;;;;;17.27;4.35;;;;;;;;;;7372204;19;20006;-76
2024/01/27 09:10:33;;;;;;;11.90;4.65;;;;;;;;;;7397217;19;19994;-76
2024/01/27 09:12:58;;;;;;;11.38;4.55;;;;;;;;;;7376196;19;20327;-75
2024/01/27 09:15:23;;;;;;;15.48;4.30;;;;;;;;;;7373170;19;20020;-75
2024/01/27 09:17:49;;;;;;;10.32;3.88;;;;;;;;;;7373263;19;20484;-76
2024/01/27 09:20:14;;;;;;;12.02;3.92;;;;;;;;;;7368810;19;20007;-75
2024/01/27 09:22:41;;;;;;;11.75;4.35;;;;;;;;;;7399040;19;20034;-75
2024/01/27 09:25:08;;;;;;;14.23;4.43;;;;;;;;;;7378538;19;20360;-77
2024/01/27 09:27:34;;;;;;;14.43;4.40;;;;;;;;;;7369365;19;20074;-77
2024/01/27 09:29:59;;;;;;;13.90;4.57;;;;;;;;;;7376043;19;20002;-75
2024/01/27 09:32:24;;;;;;;8.93;4.07;;;;;;;;;;7370705;19;20026;-75
2024/01/27 09:34:53;;;;;;;13.45;4.50;;;;;;;;;;7368292;19;19994;-76
2024/01/27 09:37:18;;;;;;;11.18;4.18;;;;;;;;;;7393531;19;20013;-75
2024/01/27 09:39:44;;;;;;;8.07;3.72;;;;;;;;;;7366080;19;20476;-75
2024/01/27 09:42:13;;;;;;;13.93;4.05;;;;;;;;;;7370315;19;20010;-75
2024/01/27 09:44:39;;;;;;;8.77;4.57;;;;;;;;;;7368553;19;20078;-75
2024/01/27 09:47:05;;;;;;;10.63;4.28;;;;;;;;;;7369349;19;20012;-75
2024/01/27 09:49:31;;;;;;;10.88;4.47;;;;;;;;;;7389665;19;20002;-76
2024/01/27 09:51:57;;;;;;;12.18;4.38;;;;;;;;;;7369525;19;20006;-75
2024/01/27 09:54:22;;;;;;;12.90;4.18;;;;;;;;;;7369946;19;20019;-75
2024/01/27 09:56:49;;;;;;;14.00;4.30;;;;;;;;;;7376307;19;19999;-74
2024/01/27 09:59:17;;;;;;;14.05;4.05;;;;;;;;;;7377606;19;20596;-75
2024/01/27 10:01:43;;;;;;;12.60;4.65;;;;;;;;;;7393336;19;20006;-74
2024/01/27 10:04:09;;;;;;;17.02;4.60;;;;;;;;;;7388126;19;20003;-75
2024/01/27 10:06:35;;;;;;;13.25;4.35;;;;;;;;;;7381083;19;20032;-75
2024/01/27 10:09:00;;;;;;;15.50;4.60;;;;;;;;;;7380282;19;20094;-75
2024/01/27 10:11:28;;;;;;;12.45;4.55;;;;;;;;;;7381072;19;20350;-76
2024/01/27 10:13:55;;;;;;;10.90;4.18;;;;;;;;;;7379827;19;20026;-75
2024/01/27 10:16:21;;;;;;;22.42;4.43;;;;;;;;;;7392782;19;20082;-74
2024/01/27 10:18:46;;;;;;;10.98;4.35;;;;;;;;;;7366695;19;20992;-76
2024/01/27 10:21:20;;;;;;;15.77;4.22;;;;;;;;;;7374498;19;20025;-76
2024/01/27 10:23:45;;;;;;;10.77;4.03;;;;;;;;;;7369313;19;20374;-75
2024/01/27 10:26:11;;;;;;;13.75;3.88;;;;;;;;;;7369227;19;20006;-76
2024/01/27 10:28:36;;;;;;;16.55;5.00;;;;;;;;;;7391087;19;20003;-76
2024/01/27 10:31:12;;;;;;;20.08;4.55;;;;;;;;;;7368802;19;20010;-75
2024/01/27 10:33:38;;;;;;;12.30;4.35;;;;;;;;;;7365902;19;20006;-75
2024/01/27 10:36:04;;;;;;;14.25;4.57;;;;;;;;;;7369060;19;20055;-75
2024/01/27 10:38:38;;;;;;;11.98;4.10;;;;;;;;;;7364653;19;20014;-75
2024/01/27 10:41:08;;;;;;;18.83;4.22;;;;;;;;;;7369867;19;20026;-75
2024/01/27 10:43:36;;;;;;;16.02;4.88;;;;;;;;;;7388756;19;20007;-76
2024/01/27 10:46:06;;;;;;;14.60;4.03;;;;;;;;;;7369780;19;20011;-75
2024/01/27 10:48:34;;;;;;;13.07;4.07;;;;;;;;;;7367561;19;20023;-75
2024/01/27 10:51:03;;;;;;;11.27;4.22;;;;;;;;;;7368980;19;20074;-75
2024/01/27 10:53:31;;;;;;;8.38;3.65;;;;;;;;;;7366915;19;20078;-74
2024/01/27 10:55:58;;;;;;;9.20;4.07;;;;;;;;;;7370887;19;20007;-74
2024/01/27 10:58:24;;;;;;;14.55;3.88;;;;;;;;;;7395748;19;20029;-74
2024/01/27 11:00:51;;;;;;;11.70;4.00;;;;;;;;;;7369250;19;20342;-74
2024/01/27 11:03:19;;;;;;;13.23;4.22;;;;;;;;;;7366912;19;20013;-74
2024/01/27 11:05:46;;;;;;;11.57;3.78;;;;;;;;;;7367051;19;20335;-75
2024/01/27 11:08:13;;;;;;;9.70;3.90;;;;;;;;;;7368835;19;20007;-75
2024/01/27 11:10:39;;;;;;;14.68;4.00;;;;;;;;;;7390127;19;20007;-74
2024/01/27 11:13:04;;;;;;;9.18;3.65;;;;;;;;;;7370611;19;20386;-74
2024/01/27 11:15:30;;;;;;;9.90;3.40;;;;;;;;;;7371897;19;20062;-74
2024/01/27 11:17:59;;;;;;;12.32;4.05;;;;;;;;;;7372268;19;20133;-74
2024/01/27 11:20:25;;;;;;;11.80;3.60;;;;;;;;;;7370888;19;20013;-74
2024/01/27 11:22:52;;;;;;;11.20;3.20;;;;;;;;;;7371568;19;20070;-74
2024/01/27 11:25:18;;;;;;;11.02;3.53;;;;;;;;;;7392843;19;20003;-74
2024/01/27 11:27:46;;;;;;;13.05;3.83;;;;;;;;;;7371012;19;20022;-74
2024/01/27 11:30:28;;;;;;;9.98;3.45;;;;;;;;;;7371890;19;20009;-74
2024/01/27 11:32:57;;;;;;;14.45;3.50;;;;;;;;;;7370150;19;20018;-75
2024/01/27 11:35:23;;;;;;;14.00;3.55;;;;;;;;;;7372804;19;20082;-74
2024/01/27 11:37:49;;;;;;;12.65;3.25;;;;;;;;;;7369275;19;20010;-75
2024/01/27 11:40:15;;;;;;;8.98;3.30;;;;;;;;;;7391523;19;20687;-75
2024/01/27 11:42:41;;;;;;;11.90;3.63;;;;;;;;;;7371093;19;20010;-74
2024/01/27 11:45:08;;;;;;;12.10;4.03;;;;;;;;;;7375745;19;20041;-74
2024/01/27 11:47:33;;;;;;;8.05;3.10;;;;;;;;;;7371335;19;20082;-74
2024/01/27 11:49:58;;;;;;;12.40;3.50;;;;;;;;;;7370612;19;20045;-74
2024/01/27 11:52:25;;;;;;;9.82;3.10;;;;;;;;;;7394585;19;20366;-75
2024/01/27 11:55:03;;;;;;;16.98;3.92;;;;;;;;;;7372844;19;19999;-74
2024/01/27 11:57:29;;;;;;;10.85;3.63;;;;;;;;;;7369477;19;20082;-74
2024/01/27 11:59:55;;;;;;;10.90;3.60;;;;;;;;;;7375292;19;20031;-74
2024/01/27 12:02:20;;;;;;;12.77;3.90;;;;;;;;;;7375856;19;20007;-74
2024/01/27 12:04:47;;;;;;;11.52;3.60;;;;;;;;;;7370556;19;20006;-74
2024/01/27 12:07:19;;;;;;;12.50;3.40;;;;;;;;;;7393266;19;20007;-74
2024/01/27 12:09:45;;;;;;;14.48;3.50;;;;;;;;;;7368510;19;20091;-74
2024/01/27 12:12:12;;;;;;;10.60;3.75;;;;;;;;;;7371262;19;20014;-74
2024/01/27 12:14:44;;;;;;;11.70;3.40;;;;;;;;;;7370587;19;20003;-74
2024/01/27 12:17:10;;;;;;;12.50;3.10;;;;;;;;;;7371556;19;20015;-74
2024/01/27 12:19:36;;;;;;;12.43;3.90;;;;;;;;;;7391508;19;20086;-74
2024/01/27 12:22:02;;;;;;;13.05;3.50;;;;;;;;;;7370651;19;20021;-75
2024/01/27 12:24:28;;;;;;;9.68;3.28;;;;;;;;;;7369417;19;20014;-75
2024/01/27 12:26:57;;;;;;;7.78;2.85;;;;;;;;;;7369659;19;20031;-74
2024/01/27 12:29:22;;;;;;;10.18;3.80;;;;;;;;;;7370176;19;20011;-74
2024/01/27 12:31:48;;;;;;;10.30;3.35;;;;;;;;;;7369849;19;20683;-74
2024/01/27 12:34:14;;;;;;;12.68;3.13;;;;;;;;;;7392061;19;20322;-74
2024/01/27 12:36:42;;;;;;;10.98;3.35;;;;;;;;;;7371301;19;20119;-74
2024/01/27 12:39:08;;;;;;;12.65;3.53;;;;;;;;;;7369011;19;20413;-74
2024/01/27 12:41:34;;;;;;;10.63;3.28;;;;;;;;;;7369355;19;20015;-74
2024/01/27 12:43:59;;;;;;;13.05;3.22;;;;;;;;;;7368424;19;19999;-74
2024/01/27 12:46:25;;;;;;;10.90;3.50;;;;;;;;;;7390223;19;19995;-74
2024/01/27 12:48:50;;;;;;;12.30;3.70;;;;;;;;;;7368047;19;20018;-74
2024/01/27 12:51:15;;;;;;;17.33;3.30;;;;;;;;;;7369915;19;20003;-76
2024/01/27 12:53:44;;;;;;;12.63;3.50;;;;;;;;;;7367320;19;20488;-75
2024/01/27 12:56:14;;;;;;;12.65;3.60;;;;;;;;;;7368778;19;20116;-74
2024/01/27 12:58:41;;;;;;;12.10;3.10;;;;;;;;;;7390799;19;20048;-74
2024/01/27 13:01:07;;;;;;;11.45;3.45;;;;;;;;;;7369267;19;20017;-75
2024/01/27 13:03:32;;;;;;;14.32;4.22;;;;;;;;;;7371960;19;20086;-75
2024/01/27 13:05:58;;;;;;;16.77;3.47;;;;;;;;;;7376172;19;20398;-75
2024/01/27 13:08:23;;;;;;;11.88;3.47;;;;;;;;;;7376012;19;20501;-74
2024/01/27 13:10:49;;;;;;;10.75;3.40;;;;;;;;;;7380833;19;20754;-75
2024/01/27 13:13:15;;;;;;;14.73;3.58;;;;;;;;;;7398887;19;20349;-75
2024/01/27 13:15:40;;;;;;;8.82;3.38;;;;;;;;;;7376802;19;20013;-76
2024/01/27 13:18:05;;;;;;;16.33;3.20;;;;;;;;;;7376314;19;20516;-76
2024/01/27 13:20:31;;;;;;;14.15;3.72;;;;;;;;;;7375368;19;20006;-75
2024/01/27 13:22:57;;;;;;;13.00;3.60;;;;;;;;;;7375600;19;20003;-74
2024/01/27 13:25:22;;;;;;;13.75;4.22;;;;;;;;;;7397438;19;20460;-74
2024/01/27 13:27:48;;;;;;;12.98;3.97;;;;;;;;;;7374410;19;20006;-75
2024/01/27 13:30:13;;;;;;;13.43;3.45;;;;;;;;;;7376017;19;20013;-76
2024/01/27 13:32:39;;;;;;;18.67;4.07;;;;;;;;;;7374343;19;20014;-76
2024/01/27 13:35:05;;;;;;;14.70;3.58;;;;;;;;;;7374687;19;20018;-76
2024/01/27 13:37:33;;;;;;;5.07;2.67;;;;;;;;;;7397017;19;20002;-74
2024/01/27 13:39:59;;;;;;;9.93;3.22;;;;;;;;;;7374585;19;20070;-75
2024/01/27 13:42:25;;;;;;;14.38;3.28;;;;;;;;;;7374960;19;20013;-75
2024/01/27 13:44:50;;;;;;;10.35;3.17;;;;;;;;;;7375037;19;20003;-75
2024/01/27 13:47:16;;;;;;;10.70;3.25;;;;;;;;;;7376477;19;20070;-75
2024/01/27 13:49:41;;;;;;;15.88;3.70;;;;;;;;;;7397864;19;19994;-75
2024/01/27 13:52:06;;;;;;;13.57;4.20;;;;;;;;;;7376817;19;20006;-75
2024/01/27 13:54:34;;;;;;;14.52;3.35;;;;;;;;;;7372867;19;20007;-75
2024/01/27 13:57:00;;;;;;;14.95;3.22;;;;;;;;;;7368834;19;20014;-75
2024/01/27 13:59:25;;;;;;;9.98;3.03;;;;;;;;;;7368999;19;20006;-75
2024/01/27 14:01:51;;;;;;;12.90;3.15;;;;;;;;;;7372285;19;20014;-75
2024/01/27 14:04:16;;;;;;;14.75;3.38;;;;;;;;;;7396871;19;20090;-75
2024/01/27 14:06:41;;;;;;;12.18;3.10;;;;;;;;;;7376684;19;20342;-75
2024/01/27 14:09:07;;;;;;;17.10;3.45;;;;;;;;;;7376765;19;20025;-75
2024/01/27 14:11:32;;;;;;;9.90;2.97;;;;;;;;;;7375258;19;20002;-75
2024/01/27 14:13:57;;;;;;;10.75;3.15;;;;;;;;;;7374455;19;19995;-76
2024/01/27 14:16:23;;;;;;;14.55;3.63;;;;;;;;;;7397767;19;20003;-75
2024/01/27 14:18:48;;;;;;;11.63;3.08;;;;;;;;;;7376546;19;20011;-76
2024/01/27 14:21:14;;;;;;;7.70;2.58;;;;;;;;;;7382364;19;20045;-77
2024/01/27 14:23:39;;;;;;;12.80;2.55;;;;;;;;;;7384839;19;20011;-76
2024/01/27 14:26:07;;;;;;;13.43;3.38;;;;;;;;;;7386432;19;20011;-77